createdAt,value
2022-07-29T00:01:12.883Z,18.2
2022-07-29T00:02:29.173Z,18.2
2022-07-29T00:03:45.465Z,18.3
2022-07-29T00:05:01.777Z,18.2
2022-07-29T00:06:18.061Z,18.3
2022-07-29T00:07:34.358Z,18.2
2022-07-29T00:08:50.639Z,18.3
2022-07-29T00:10:06.939Z,18.2
2022-07-29T00:11:23.237Z,18.3
2022-07-29T00:12:39.525Z,18.2
2022-07-29T00:13:54.847Z,18.2
2022-07-29T00:15:11.129Z,18.2
2022-07-29T00:16:27.423Z,18.2
2022-07-29T00:17:43.722Z,18.2
2022-07-29T00:19:00.022Z,18.2
2022-07-29T00:20:16.315Z,18.2
2022-07-29T00:21:32.598Z,18.2
2022-07-29T00:22:48.892Z,18.1
2022-07-29T00:24:05.188Z,18.2
2022-07-29T00:25:21.488Z,18.1
2022-07-29T00:26:37.776Z,18.1
2022-07-29T00:27:54.078Z,18.1
2022-07-29T00:29:10.364Z,18.1
2022-07-29T00:30:25.670Z,18.1
2022-07-29T00:31:41.975Z,18.1
2022-07-29T00:32:58.271Z,18.1
2022-07-29T00:34:14.566Z,18.1
2022-07-29T00:35:30.855Z,18.1
2022-07-29T00:36:47.152Z,18.1
2022-07-29T00:38:03.445Z,18.1
2022-07-29T00:39:19.727Z,18.1
2022-07-29T00:40:36.025Z,18.1
2022-07-29T00:41:52.323Z,18.1
2022-07-29T00:43:08.624Z,18.1
2022-07-29T00:44:24.910Z,18
2022-07-29T00:45:41.208Z,18
2022-07-29T00:46:56.508Z,18
2022-07-29T00:48:12.801Z,18
2022-07-29T00:49:29.096Z,18
2022-07-29T00:50:45.393Z,18
2022-07-29T00:52:01.693Z,18
2022-07-29T00:53:17.991Z,17.9
2022-07-29T00:54:34.270Z,18
2022-07-29T00:55:50.580Z,17.9
2022-07-29T00:57:06.858Z,17.9
2022-07-29T00:58:23.153Z,17.9
2022-07-29T00:59:39.448Z,17.9
2022-07-29T01:00:55.747Z,17.9
2022-07-29T01:02:12.041Z,17.8
2022-07-29T01:03:27.344Z,17.8
2022-07-29T01:04:43.642Z,17.8
2022-07-29T01:05:59.941Z,17.8
2022-07-29T01:07:16.229Z,17.8
2022-07-29T01:08:32.528Z,17.8
2022-07-29T01:09:48.823Z,17.8
2022-07-29T01:11:05.102Z,17.8
2022-07-29T01:12:21.401Z,17.7
2022-07-29T01:13:37.693Z,17.7
2022-07-29T01:14:53.998Z,17.7
2022-07-29T01:16:10.296Z,17.7
2022-07-29T01:17:26.582Z,17.7
2022-07-29T01:18:42.878Z,17.7
2022-07-29T01:19:58.182Z,17.7
2022-07-29T01:21:14.474Z,17.7
2022-07-29T01:22:30.774Z,17.7
2022-07-29T01:23:47.059Z,17.7
2022-07-29T01:25:03.357Z,17.7
2022-07-29T01:26:19.656Z,17.7
2022-07-29T01:27:35.954Z,17.7
2022-07-29T01:28:52.232Z,17.7
2022-07-29T01:30:08.534Z,17.7
2022-07-29T01:31:24.831Z,17.7
2022-07-29T01:32:41.115Z,17.7
2022-07-29T01:33:57.412Z,17.7
2022-07-29T01:35:13.711Z,17.7
2022-07-29T01:36:29.021Z,17.7
2022-07-29T01:37:45.312Z,17.6
2022-07-29T01:39:01.606Z,17.6
2022-07-29T01:40:17.899Z,17.6
2022-07-29T01:41:34.198Z,17.6
2022-07-29T01:42:50.497Z,17.6
2022-07-29T01:44:06.772Z,17.6
2022-07-29T01:45:23.077Z,17.6
2022-07-29T01:46:39.361Z,17.5
2022-07-29T01:47:55.659Z,17.5
2022-07-29T01:49:11.966Z,17.5
2022-07-29T01:50:28.243Z,17.5
2022-07-29T01:51:44.548Z,17.5
2022-07-29T01:52:59.849Z,17.5
2022-07-29T01:54:16.147Z,17.5
2022-07-29T01:55:32.442Z,17.5
2022-07-29T01:56:48.744Z,17.5
2022-07-29T01:58:05.026Z,17.4
2022-07-29T01:59:21.330Z,17.4
2022-07-29T02:00:37.625Z,17.4
2022-07-29T02:01:53.907Z,17.4
2022-07-29T02:03:10.205Z,17.4
2022-07-29T02:04:26.490Z,17.4
2022-07-29T02:05:42.786Z,17.4
2022-07-29T02:06:59.078Z,17.4
2022-07-29T02:08:15.378Z,17.3
2022-07-29T02:09:30.689Z,17.3
2022-07-29T02:10:46.973Z,17.3
2022-07-29T02:12:03.281Z,17.3
2022-07-29T02:13:19.564Z,17.3
2022-07-29T02:14:35.874Z,17.3
2022-07-29T02:15:52.160Z,17.3
2022-07-29T02:17:08.447Z,17.3
2022-07-29T02:18:24.749Z,17.3
2022-07-29T02:19:41.048Z,17.3
2022-07-29T02:20:57.323Z,17.3
2022-07-29T02:22:13.635Z,17.2
2022-07-29T02:23:29.917Z,17.2
2022-07-29T02:24:46.209Z,17.2
2022-07-29T02:26:01.529Z,17.2
2022-07-29T02:27:17.826Z,17.2
2022-07-29T02:28:34.110Z,17.1
2022-07-29T02:29:50.404Z,17.1
2022-07-29T02:31:06.000Z,17.1
2022-07-29T02:32:23.004Z,17.1
2022-07-29T02:33:39.282Z,17.1
2022-07-29T02:34:55.572Z,17.1
2022-07-29T02:36:11.873Z,17.1
2022-07-29T02:37:28.166Z,17.1
2022-07-29T02:38:44.460Z,17
2022-07-29T02:40:00.748Z,17
2022-07-29T02:41:17.056Z,17.1
2022-07-29T02:42:32.353Z,17.1
2022-07-29T02:43:48.645Z,17
2022-07-29T02:45:04.952Z,17
2022-07-29T02:46:21.231Z,17
2022-07-29T02:47:37.542Z,17
2022-07-29T02:48:53.822Z,17
2022-07-29T02:50:09.148Z,17
2022-07-29T02:51:25.435Z,17
2022-07-29T02:52:41.677Z,17
2022-07-29T02:53:57.982Z,17
2022-07-29T02:55:14.266Z,17
2022-07-29T02:56:30.568Z,17
2022-07-29T02:57:46.854Z,17
2022-07-29T02:59:03.154Z,17
2022-07-29T03:00:19.395Z,17
2022-07-29T03:01:35.630Z,17
2022-07-29T03:02:51.880Z,17
2022-07-29T03:04:08.179Z,17
2022-07-29T03:05:24.464Z,17
2022-07-29T03:06:39.724Z,17
2022-07-29T03:07:55.972Z,17
2022-07-29T03:09:12.222Z,17
2022-07-29T03:10:28.516Z,17
2022-07-29T03:11:44.765Z,17
2022-07-29T03:13:01.008Z,17
2022-07-29T03:14:17.247Z,17
2022-07-29T03:15:33.481Z,17
2022-07-29T03:16:49.734Z,17
2022-07-29T03:18:05.956Z,17
2022-07-29T03:19:22.196Z,17
2022-07-29T03:20:38.439Z,17
2022-07-29T03:21:54.687Z,17
2022-07-29T03:23:09.950Z,17
2022-07-29T03:25:42.429Z,17
2022-07-29T03:26:58.662Z,17
2022-07-29T03:28:14.894Z,17
2022-07-29T03:29:31.132Z,16.9
2022-07-29T03:30:47.378Z,16.9
2022-07-29T03:32:03.624Z,16.9
2022-07-29T03:33:19.851Z,16.9
2022-07-29T03:34:36.104Z,16.9
2022-07-29T03:35:52.347Z,16.9
2022-07-29T03:37:08.586Z,16.9
2022-07-29T03:38:24.807Z,16.9
2022-07-29T03:39:40.064Z,16.9
2022-07-29T03:40:56.319Z,16.8
2022-07-29T03:42:12.557Z,16.8
2022-07-29T03:43:28.783Z,16.8
2022-07-29T03:44:45.034Z,16.8
2022-07-29T03:46:01.277Z,16.8
2022-07-29T03:47:17.513Z,16.8
2022-07-29T03:48:33.761Z,16.8
2022-07-29T03:49:49.994Z,16.8
2022-07-29T03:51:06.238Z,16.8
2022-07-29T03:52:22.465Z,16.8
2022-07-29T03:53:38.710Z,16.8
2022-07-29T03:54:54.953Z,16.8
2022-07-29T03:56:10.196Z,16.8
2022-07-29T03:57:26.444Z,16.8
2022-07-29T03:58:42.684Z,16.8
2022-07-29T03:59:58.935Z,16.8
2022-07-29T04:01:15.156Z,16.8
2022-07-29T04:02:31.402Z,16.8
2022-07-29T04:03:47.638Z,16.8
2022-07-29T04:05:03.883Z,16.8
2022-07-29T04:06:20.121Z,16.8
2022-07-29T04:07:36.372Z,16.7
2022-07-29T04:08:52.604Z,16.8
2022-07-29T04:10:08.834Z,16.8
2022-07-29T04:11:25.085Z,16.8
2022-07-29T04:12:40.339Z,16.8
2022-07-29T04:13:56.580Z,16.7
2022-07-29T04:15:12.828Z,16.8
2022-07-29T04:16:29.057Z,16.7
2022-07-29T04:17:45.307Z,16.8
2022-07-29T04:19:01.545Z,16.8
2022-07-29T04:20:17.773Z,16.7
2022-07-29T04:21:34.017Z,16.7
2022-07-29T04:22:50.259Z,16.8
2022-07-29T04:24:06.499Z,16.8
2022-07-29T04:25:22.735Z,16.8
2022-07-29T04:26:38.969Z,16.8
2022-07-29T04:27:55.215Z,16.8
2022-07-29T04:29:10.465Z,16.8
2022-07-29T04:30:26.716Z,16.8
2022-07-29T04:31:42.953Z,16.8
2022-07-29T04:32:59.181Z,16.8
2022-07-29T04:34:15.431Z,16.9
2022-07-29T04:35:31.678Z,16.9
2022-07-29T04:36:47.913Z,16.9
2022-07-29T04:38:04.145Z,16.9
2022-07-29T04:39:20.382Z,16.9
2022-07-29T04:40:36.621Z,16.9
2022-07-29T04:41:52.871Z,17
2022-07-29T04:43:09.104Z,17
2022-07-29T04:44:25.356Z,17
2022-07-29T04:45:40.603Z,17
2022-07-29T04:46:56.838Z,17
2022-07-29T04:48:13.087Z,17
2022-07-29T04:49:29.333Z,17.1
2022-07-29T04:50:45.561Z,17.1
2022-07-29T04:52:01.800Z,17.1
2022-07-29T04:53:18.047Z,17.1
2022-07-29T04:54:34.287Z,17.1
2022-07-29T04:55:50.533Z,17.2
2022-07-29T04:57:06.756Z,17.2
2022-07-29T04:58:23.012Z,17.2
2022-07-29T04:59:39.235Z,17.2
2022-07-29T05:00:55.478Z,17.2
2022-07-29T05:02:10.745Z,17.2
2022-07-29T05:03:26.973Z,17.3
2022-07-29T05:04:43.207Z,17.3
2022-07-29T05:05:59.460Z,17.3
2022-07-29T05:07:15.685Z,17.3
2022-07-29T05:09:48.182Z,17.4
2022-07-29T05:11:04.420Z,17.4
2022-07-29T05:12:20.659Z,17.4
2022-07-29T05:13:36.892Z,17.5
2022-07-29T05:14:53.142Z,17.6
2022-07-29T05:16:09.383Z,17.6
2022-07-29T05:17:25.614Z,17.6
2022-07-29T05:18:40.861Z,17.7
2022-07-29T05:19:57.111Z,17.7
2022-07-29T05:21:13.347Z,17.7
2022-07-29T05:22:29.591Z,17.8
2022-07-29T05:23:45.831Z,17.9
2022-07-29T05:25:02.071Z,17.9
2022-07-29T05:26:18.308Z,18
2022-07-29T05:27:34.551Z,18
2022-07-29T05:28:50.785Z,18.1
2022-07-29T05:30:07.029Z,18.2
2022-07-29T05:31:23.270Z,18.2
2022-07-29T05:32:39.513Z,18.3
2022-07-29T05:33:55.752Z,18.4
2022-07-29T05:35:11.004Z,18.5
2022-07-29T05:36:27.237Z,18.5
2022-07-29T05:37:43.477Z,18.6
2022-07-29T05:38:59.716Z,18.6
2022-07-29T05:40:15.969Z,18.7
2022-07-29T05:41:32.210Z,18.7
2022-07-29T05:42:48.446Z,18.7
2022-07-29T05:44:04.690Z,18.7
2022-07-29T05:45:20.927Z,18.7
2022-07-29T05:46:37.153Z,18.7
2022-07-29T05:47:53.390Z,18.8
2022-07-29T05:49:09.000Z,18.8
2022-07-29T05:50:25.889Z,18.8
2022-07-29T05:51:41.137Z,18.8
2022-07-29T05:52:57.364Z,18.8
2022-07-29T05:54:13.610Z,18.8
2022-07-29T05:55:29.850Z,18.8
2022-07-29T05:56:46.085Z,18.8
2022-07-29T05:58:02.342Z,18.8
2022-07-29T05:59:18.570Z,18.7
2022-07-29T06:00:34.805Z,18.7
2022-07-29T06:01:51.047Z,18.7
2022-07-29T06:03:07.299Z,18.6
2022-07-29T06:04:23.542Z,18.6
2022-07-29T06:05:39.774Z,18.6
2022-07-29T06:06:56.012Z,18.6
2022-07-29T06:08:11.265Z,18.7
2022-07-29T06:09:27.500Z,18.7
2022-07-29T06:10:43.757Z,18.7
2022-07-29T06:11:59.992Z,18.7
2022-07-29T06:13:16.235Z,18.8
2022-07-29T06:14:32.460Z,18.8
2022-07-29T06:15:48.706Z,18.9
2022-07-29T06:17:04.955Z,18.9
2022-07-29T06:18:21.185Z,19
2022-07-29T06:19:37.421Z,18.9
2022-07-29T06:20:53.661Z,19
2022-07-29T06:22:09.900Z,19
2022-07-29T06:23:26.144Z,19
2022-07-29T06:24:41.413Z,19
2022-07-29T06:25:57.651Z,19
2022-07-29T06:27:13.886Z,19
2022-07-29T06:28:30.130Z,19
2022-07-29T06:29:46.356Z,19.1
2022-07-29T06:31:02.608Z,19.1
2022-07-29T06:32:18.840Z,19.2
2022-07-29T06:33:35.082Z,19.2
2022-07-29T06:34:51.318Z,19.2
2022-07-29T06:36:07.565Z,19.3
2022-07-29T06:37:23.805Z,19.3
2022-07-29T06:38:40.031Z,19.4
2022-07-29T06:39:56.270Z,19.5
2022-07-29T06:41:11.532Z,19.5
2022-07-29T06:42:27.772Z,19.6
2022-07-29T06:43:44.009Z,19.6
2022-07-29T06:45:00.265Z,19.6
2022-07-29T06:46:16.496Z,19.6
2022-07-29T06:47:32.735Z,19.7
2022-07-29T06:48:48.979Z,19.7
2022-07-29T06:50:05.219Z,19.7
2022-07-29T06:51:21.461Z,19.7
2022-07-29T06:52:37.701Z,19.7
2022-07-29T06:53:53.938Z,19.7
2022-07-29T06:55:10.178Z,19.6
2022-07-29T06:56:26.404Z,19.6
2022-07-29T06:57:41.661Z,19.6
2022-07-29T07:00:14.158Z,19.6
2022-07-29T07:01:30.392Z,19.6
2022-07-29T07:02:46.631Z,19.6
2022-07-29T07:04:02.876Z,19.7
2022-07-29T07:05:18.136Z,19.7
2022-07-29T07:06:34.364Z,19.7
2022-07-29T07:07:50.616Z,19.8
2022-07-29T07:09:06.840Z,19.8
2022-07-29T07:10:23.081Z,19.9
2022-07-29T07:11:39.336Z,19.9
2022-07-29T07:12:55.577Z,20.2
2022-07-29T07:14:11.812Z,20.4
2022-07-29T07:15:28.051Z,20.5
2022-07-29T07:16:44.294Z,20.5
2022-07-29T07:18:00.522Z,20.7
2022-07-29T07:19:16.763Z,20.9
2022-07-29T07:20:33.011Z,21.1
2022-07-29T07:21:48.267Z,21.3
2022-07-29T07:23:04.502Z,21.5
2022-07-29T07:24:20.737Z,21.7
2022-07-29T07:25:36.993Z,22
2022-07-29T07:26:53.216Z,22.1
2022-07-29T07:28:09.457Z,22.1
2022-07-29T07:29:25.707Z,22.2
2022-07-29T07:30:41.933Z,22.4
2022-07-29T07:31:58.183Z,22.5
2022-07-29T07:33:14.425Z,22.6
2022-07-29T07:34:30.673Z,22.8
2022-07-29T07:35:46.899Z,23
2022-07-29T07:37:03.145Z,22.9
2022-07-29T07:39:34.644Z,22.9
2022-07-29T07:40:50.880Z,22.7
2022-07-29T07:42:07.118Z,22.6
2022-07-29T07:44:39.599Z,22.7
2022-07-29T07:45:55.838Z,22.7
2022-07-29T07:47:12.079Z,22.7
2022-07-29T07:48:28.314Z,22.8
2022-07-29T07:49:44.563Z,23.1
2022-07-29T07:51:00.798Z,23.2
2022-07-29T07:52:17.034Z,23.2
2022-07-29T07:53:33.272Z,23.3
2022-07-29T07:54:48.531Z,23.4
2022-07-29T07:56:04.774Z,23.6
2022-07-29T07:57:21.007Z,23.8
2022-07-29T07:58:37.259Z,24.1
2022-07-29T07:59:53.490Z,24.3
2022-07-29T08:01:09.740Z,24.6
2022-07-29T08:02:25.973Z,24.6
2022-07-29T08:03:42.200Z,24.6
2022-07-29T08:04:58.439Z,24.8
2022-07-29T08:06:14.695Z,25
2022-07-29T08:07:30.925Z,25
2022-07-29T08:08:47.158Z,25.1
2022-07-29T08:10:03.406Z,25.4
2022-07-29T08:11:18.655Z,25.6
2022-07-29T08:12:34.894Z,25.8
2022-07-29T08:13:51.137Z,26.1
2022-07-29T08:15:07.389Z,26.2
2022-07-29T08:16:23.622Z,26.4
2022-07-29T08:17:39.866Z,26.6
2022-07-29T08:18:56.095Z,26.8
2022-07-29T08:20:12.349Z,26.9
2022-07-29T08:22:44.819Z,27.1
2022-07-29T08:24:01.052Z,27.2
2022-07-29T08:25:17.289Z,27.2
2022-07-29T08:26:33.543Z,27.4
2022-07-29T08:27:48.792Z,27.5
2022-07-29T08:29:05.032Z,27.6
2022-07-29T08:30:21.265Z,27.7
2022-07-29T08:31:37.521Z,27.8
2022-07-29T08:32:53.756Z,27.8
2022-07-29T08:34:09.989Z,27.9
2022-07-29T08:35:26.228Z,27.9
2022-07-29T08:36:42.468Z,28.1
2022-07-29T08:37:58.716Z,28.2
2022-07-29T08:39:14.961Z,28.3
2022-07-29T08:40:31.195Z,28.4
2022-07-29T08:41:47.429Z,28.5
2022-07-29T08:43:03.678Z,28.6
2022-07-29T08:44:18.928Z,28.7
2022-07-29T08:45:35.178Z,28.8
2022-07-29T08:46:51.411Z,28.9
2022-07-29T08:48:07.640Z,28.9
2022-07-29T08:49:23.887Z,29
2022-07-29T08:50:40.133Z,28.8
2022-07-29T08:51:56.368Z,28.8
2022-07-29T08:53:12.610Z,28.9
2022-07-29T08:54:28.854Z,28.8
2022-07-29T08:55:45.076Z,28.6
2022-07-29T08:57:01.323Z,28.5
2022-07-29T08:58:17.565Z,28.7
2022-07-29T08:59:33.797Z,28.8
2022-07-29T09:00:49.068Z,29
2022-07-29T09:02:05.297Z,29.2
2022-07-29T09:03:21.532Z,29.4
2022-07-29T09:04:37.783Z,29.6
2022-07-29T09:05:54.029Z,29.7
2022-07-29T09:07:10.265Z,29.8
2022-07-29T09:08:26.510Z,29.9
2022-07-29T09:09:42.732Z,29.9
2022-07-29T09:10:58.980Z,29.9
2022-07-29T09:13:31.465Z,29.7
2022-07-29T09:14:47.711Z,29.3
2022-07-29T09:16:03.937Z,29.1
2022-07-29T09:17:19.204Z,29
2022-07-29T09:18:35.438Z,29
2022-07-29T09:19:51.681Z,29.1
2022-07-29T09:21:07.914Z,29.2
2022-07-29T09:22:24.156Z,29.2
2022-07-29T09:23:40.397Z,29
2022-07-29T09:24:56.641Z,28.8
2022-07-29T09:26:12.874Z,28.8
2022-07-29T09:27:29.116Z,28.6
2022-07-29T09:28:45.360Z,28.3
2022-07-29T09:30:01.600Z,28.2
2022-07-29T09:31:17.840Z,28.2
2022-07-29T09:32:34.068Z,28.3
2022-07-29T09:33:49.327Z,28.1
2022-07-29T09:35:05.571Z,28.1
2022-07-29T09:36:21.807Z,28.1
2022-07-29T09:38:54.296Z,28.1
2022-07-29T09:40:10.528Z,28
2022-07-29T09:41:26.762Z,28.1
2022-07-29T09:42:43.007Z,28.2
2022-07-29T09:43:59.258Z,28.4
2022-07-29T09:45:15.498Z,28.4
2022-07-29T09:46:31.731Z,28.6
2022-07-29T09:47:47.970Z,28.7
2022-07-29T09:49:04.203Z,28.7
2022-07-29T09:50:19.473Z,28.8
2022-07-29T09:51:35.711Z,28.9
2022-07-29T09:52:51.939Z,28.9
2022-07-29T09:54:08.187Z,28.8
2022-07-29T09:55:24.425Z,28.8
2022-07-29T09:56:40.660Z,28.8
2022-07-29T09:57:56.906Z,28.8
2022-07-29T09:59:13.150Z,28.8
2022-07-29T10:00:29.396Z,29
2022-07-29T10:03:01.876Z,29.4
2022-07-29T10:04:18.117Z,29.7
2022-07-29T10:05:34.346Z,29.9
2022-07-29T10:06:49.605Z,29.9
2022-07-29T10:08:05.842Z,29.8
2022-07-29T10:09:22.079Z,29.6
2022-07-29T10:10:38.326Z,29.4
2022-07-29T10:11:54.570Z,29.3
2022-07-29T10:13:10.799Z,29.4
2022-07-29T10:14:27.049Z,29.5
2022-07-29T10:15:43.284Z,29.6
2022-07-29T10:16:59.527Z,29.5
2022-07-29T10:18:15.755Z,29.4
2022-07-29T10:19:32.009Z,29.3
2022-07-29T10:20:48.244Z,29.3
2022-07-29T10:22:04.491Z,29.1
2022-07-29T10:23:19.736Z,29.1
2022-07-29T10:24:35.989Z,29
2022-07-29T10:25:52.217Z,29.1
2022-07-29T10:27:08.456Z,29
2022-07-29T10:28:24.701Z,29
2022-07-29T10:29:40.945Z,29.1
2022-07-29T10:30:57.185Z,29.2
2022-07-29T10:32:13.000Z,29.1
2022-07-29T10:33:29.664Z,29.1
2022-07-29T10:34:45.893Z,29.2
2022-07-29T10:36:02.131Z,29.1
2022-07-29T10:37:18.384Z,29.2
2022-07-29T10:38:34.623Z,29.4
2022-07-29T10:39:49.869Z,29.3
2022-07-29T10:41:06.108Z,29.1
2022-07-29T10:42:22.350Z,29.3
2022-07-29T10:43:38.596Z,29.1
2022-07-29T10:44:54.828Z,29.1
2022-07-29T10:46:11.071Z,29
2022-07-29T10:47:27.312Z,29.1
2022-07-29T10:48:43.553Z,29.2
2022-07-29T10:49:59.795Z,29.1
2022-07-29T10:51:16.041Z,29.1
2022-07-29T10:52:32.273Z,29.1
2022-07-29T10:53:48.519Z,29.2
2022-07-29T10:55:04.760Z,29.3
2022-07-29T10:56:20.018Z,29.4
2022-07-29T10:57:36.244Z,29.5
2022-07-29T10:58:52.484Z,29.6
2022-07-29T11:00:08.738Z,29.6
2022-07-29T11:01:24.974Z,29.5
2022-07-29T11:02:41.203Z,29.5
2022-07-29T11:03:57.453Z,29.3
2022-07-29T11:05:13.697Z,29.3
2022-07-29T11:06:29.942Z,29.2
2022-07-29T11:07:46.169Z,29.2
2022-07-29T11:09:02.421Z,29.2
2022-07-29T11:10:18.658Z,29.2
2022-07-29T11:11:34.896Z,29.3
2022-07-29T11:12:50.145Z,29.2
2022-07-29T11:14:06.380Z,29.1
2022-07-29T11:15:22.623Z,29
2022-07-29T11:16:38.874Z,29
2022-07-29T11:17:55.100Z,29
2022-07-29T11:19:11.355Z,28.8
2022-07-29T11:20:26.616Z,28.7
2022-07-29T11:21:42.840Z,28.7
2022-07-29T11:22:59.097Z,28.7
2022-07-29T11:24:15.324Z,28.7
2022-07-29T11:25:31.578Z,28.8
2022-07-29T11:28:04.051Z,29
2022-07-29T11:29:20.289Z,29.2
2022-07-29T11:30:36.527Z,29.1
2022-07-29T11:33:09.019Z,28.9
2022-07-29T11:34:25.246Z,28.8
2022-07-29T11:35:41.490Z,28.8
2022-07-29T11:36:56.754Z,28.8
2022-07-29T11:38:12.985Z,28.9
2022-07-29T11:39:29.221Z,28.9
2022-07-29T11:40:45.463Z,28.9
2022-07-29T11:42:01.701Z,28.9
2022-07-29T11:43:17.941Z,28.9
2022-07-29T11:44:34.191Z,29
2022-07-29T11:45:50.426Z,29
2022-07-29T11:47:06.659Z,29.1
2022-07-29T11:48:22.903Z,29.1
2022-07-29T11:49:39.137Z,29.1
2022-07-29T11:50:55.395Z,29.1
2022-07-29T11:52:11.632Z,29.1
2022-07-29T11:53:26.884Z,29
2022-07-29T11:54:43.112Z,29
2022-07-29T11:55:59.351Z,28.9
2022-07-29T11:57:15.605Z,28.8
2022-07-29T11:58:31.839Z,28.6
2022-07-29T11:59:48.073Z,28.5
2022-07-29T12:01:04.325Z,28.6
2022-07-29T12:02:20.570Z,28.6
2022-07-29T12:03:36.805Z,28.6
2022-07-29T12:04:53.048Z,28.7
2022-07-29T12:06:09.284Z,28.6
2022-07-29T12:07:25.523Z,28.7
2022-07-29T12:08:41.755Z,28.7
2022-07-29T12:09:57.014Z,28.7
2022-07-29T12:11:13.264Z,28.8
2022-07-29T12:12:29.498Z,28.9
2022-07-29T12:13:45.741Z,29
2022-07-29T12:15:01.979Z,29
2022-07-29T12:16:18.212Z,29.2
2022-07-29T12:17:34.459Z,29.2
2022-07-29T12:18:50.699Z,29.3
2022-07-29T12:20:06.934Z,29.4
2022-07-29T12:21:23.177Z,29.4
2022-07-29T12:22:39.424Z,29.5
2022-07-29T12:23:55.660Z,29.5
2022-07-29T12:25:11.906Z,29.6
2022-07-29T12:26:27.142Z,29.6
2022-07-29T12:27:43.397Z,29.7
2022-07-29T12:28:59.636Z,29.7
2022-07-29T12:30:15.867Z,29.7
2022-07-29T12:31:32.113Z,29.7
2022-07-29T12:32:48.352Z,29.6
2022-07-29T12:34:04.599Z,29.4
2022-07-29T12:35:20.827Z,29.2
2022-07-29T12:36:37.064Z,29.1
2022-07-29T12:37:53.318Z,29.1
2022-07-29T12:39:09.550Z,29.1
2022-07-29T12:41:42.029Z,29.1
2022-07-29T12:42:57.295Z,29.1
2022-07-29T12:44:13.534Z,29.1
2022-07-29T12:45:29.762Z,29.3
2022-07-29T12:46:46.006Z,29.4
2022-07-29T12:48:02.254Z,29.5
2022-07-29T12:49:18.495Z,29.6
2022-07-29T12:50:34.732Z,29.8
2022-07-29T12:51:50.974Z,29.9
2022-07-29T12:53:07.197Z,29.9
2022-07-29T12:54:23.447Z,30
2022-07-29T12:55:39.681Z,30
2022-07-29T12:56:55.931Z,30
2022-07-29T12:58:12.170Z,29.9
2022-07-29T12:59:27.415Z,29.9
2022-07-29T13:00:43.658Z,29.8
2022-07-29T13:01:59.911Z,29.8
2022-07-29T13:03:16.146Z,29.7
2022-07-29T13:04:32.393Z,29.6
2022-07-29T13:05:48.623Z,29.5
2022-07-29T13:07:04.868Z,29.5
2022-07-29T13:08:21.102Z,29.5
2022-07-29T13:09:37.339Z,29.5
2022-07-29T13:10:53.586Z,29.5
2022-07-29T13:12:09.826Z,29.5
2022-07-29T13:13:26.066Z,29.5
2022-07-29T13:14:42.299Z,29.4
2022-07-29T13:15:57.559Z,29.4
2022-07-29T13:17:13.805Z,29.3
2022-07-29T13:18:30.039Z,29.2
2022-07-29T13:19:46.279Z,29.3
2022-07-29T13:22:18.761Z,29.3
2022-07-29T13:23:34.990Z,29.2
2022-07-29T13:24:51.229Z,29.1
2022-07-29T13:27:23.716Z,29
2022-07-29T13:28:39.962Z,28.9
2022-07-29T13:29:56.202Z,28.9
2022-07-29T13:31:12.430Z,28.9
2022-07-29T13:32:27.696Z,29
2022-07-29T13:33:43.940Z,29
2022-07-29T13:35:00.165Z,29
2022-07-29T13:36:16.420Z,29.1
2022-07-29T13:37:32.642Z,29.1
2022-07-29T13:38:48.887Z,29.2
2022-07-29T13:40:05.138Z,29.2
2022-07-29T13:41:21.376Z,29.2
2022-07-29T13:42:37.611Z,29.2
2022-07-29T13:43:53.856Z,29.3
2022-07-29T13:45:10.088Z,29.3
2022-07-29T13:46:26.331Z,29.3
2022-07-29T13:47:42.572Z,29.3
2022-07-29T13:48:57.835Z,29.3
2022-07-29T13:50:14.064Z,29.3
2022-07-29T13:51:30.314Z,29.3
2022-07-29T13:52:46.545Z,29.3
2022-07-29T13:54:02.798Z,29.3
2022-07-29T13:55:19.028Z,29.3
2022-07-29T13:56:35.256Z,29.3
2022-07-29T13:57:51.513Z,29.4
2022-07-29T13:59:07.741Z,29.3
2022-07-29T14:00:23.991Z,29.3
2022-07-29T14:01:40.216Z,29.2
2022-07-29T14:02:56.458Z,29.2
2022-07-29T14:04:12.702Z,29.2
2022-07-29T14:05:27.961Z,29.2
2022-07-29T14:06:44.210Z,29.2
2022-07-29T14:08:00.451Z,29.2
2022-07-29T14:09:16.691Z,29.2
2022-07-29T14:10:32.917Z,29.2
2022-07-29T14:11:49.173Z,29.1
2022-07-29T14:13:05.405Z,29.2
2022-07-29T14:14:21.640Z,29.1
2022-07-29T14:15:37.893Z,29.2
2022-07-29T14:16:54.125Z,29.2
2022-07-29T14:18:10.000Z,29.2
2022-07-29T14:19:26.613Z,29.2
2022-07-29T14:20:42.835Z,29.3
2022-07-29T14:21:58.109Z,29.3
2022-07-29T14:23:14.341Z,29.3
2022-07-29T14:24:30.581Z,29.4
2022-07-29T14:25:46.823Z,29.4
2022-07-29T14:27:03.050Z,29.3
2022-07-29T14:28:19.297Z,29.3
2022-07-29T14:29:35.535Z,29.3
2022-07-29T14:30:51.773Z,29.4
2022-07-29T14:32:08.015Z,29.4
2022-07-29T14:33:24.259Z,29.6
2022-07-29T14:34:40.502Z,29.8
2022-07-29T14:35:56.730Z,30.1
2022-07-29T14:37:12.985Z,30.2
2022-07-29T14:38:28.235Z,30.5
2022-07-29T14:39:44.467Z,30.6
2022-07-29T14:41:00.706Z,30.9
2022-07-29T14:42:16.947Z,31.1
2022-07-29T14:43:33.194Z,31.1
2022-07-29T14:44:49.428Z,31.1
2022-07-29T14:46:05.680Z,31.1
2022-07-29T14:47:21.907Z,31
2022-07-29T14:48:38.150Z,30.9
2022-07-29T14:49:54.398Z,30.7
2022-07-29T14:51:10.633Z,30.6
2022-07-29T14:52:26.880Z,30.5
2022-07-29T14:53:43.126Z,30.4
2022-07-29T14:54:58.376Z,30.2
2022-07-29T14:56:14.606Z,30.1
2022-07-29T14:57:30.856Z,29.9
2022-07-29T14:58:47.082Z,29.8
2022-07-29T15:00:03.335Z,29.7
2022-07-29T15:01:19.575Z,29.5
2022-07-29T15:02:35.801Z,29.4
2022-07-29T15:03:52.057Z,29.3
2022-07-29T15:05:08.289Z,29.3
2022-07-29T15:06:24.539Z,29.3
2022-07-29T15:07:40.779Z,29.2
2022-07-29T15:08:57.005Z,29.1
2022-07-29T15:10:13.242Z,29.1
2022-07-29T15:11:28.502Z,29
2022-07-29T15:12:44.750Z,29
2022-07-29T15:14:00.989Z,28.9
2022-07-29T15:16:33.469Z,28.8
2022-07-29T15:17:49.713Z,28.8
2022-07-29T15:19:05.938Z,28.8
2022-07-29T15:21:38.432Z,28.8
2022-07-29T15:22:54.656Z,28.8
2022-07-29T15:24:10.915Z,28.8
2022-07-29T15:25:27.154Z,28.7
2022-07-29T15:26:43.379Z,28.7
2022-07-29T15:27:58.645Z,28.6
2022-07-29T15:29:14.890Z,28.5
2022-07-29T15:30:31.117Z,28.4
2022-07-29T15:31:47.366Z,28.4
2022-07-29T15:33:03.611Z,28.4
2022-07-29T15:34:19.839Z,28.4
2022-07-29T15:35:35.099Z,28.4
2022-07-29T15:36:51.351Z,28.3
2022-07-29T15:38:07.573Z,28.1
2022-07-29T15:39:23.815Z,27.6
2022-07-29T15:40:40.063Z,27
2022-07-29T15:41:56.313Z,26.4
2022-07-29T15:44:28.784Z,25.5
2022-07-29T15:45:45.023Z,25.2
2022-07-29T15:47:01.270Z,25.1
2022-07-29T15:48:17.493Z,24.9
2022-07-29T15:49:33.736Z,24.9
2022-07-29T15:50:49.987Z,24.9
2022-07-29T15:52:05.228Z,24.8
2022-07-29T15:53:21.481Z,24.6
2022-07-29T15:54:37.709Z,24.4
2022-07-29T15:55:53.958Z,24.3
2022-07-29T15:57:10.188Z,24.2
2022-07-29T15:58:26.441Z,24.2
2022-07-29T15:59:42.671Z,24.1
2022-07-29T16:00:58.907Z,24
2022-07-29T16:02:15.154Z,23.9
2022-07-29T16:03:31.399Z,23.8
2022-07-29T16:04:47.627Z,23.7
2022-07-29T16:06:03.874Z,23.7
2022-07-29T16:07:20.108Z,23.7
2022-07-29T16:08:35.378Z,23.7
2022-07-29T16:09:51.603Z,23.6
2022-07-29T16:11:07.843Z,23.6
2022-07-29T16:12:24.083Z,23.7
2022-07-29T16:13:40.322Z,23.6
2022-07-29T16:14:56.579Z,23.5
2022-07-29T16:16:12.807Z,23.4
2022-07-29T16:17:29.054Z,23.3
2022-07-29T16:18:45.285Z,23.3
2022-07-29T16:20:01.525Z,23.3
2022-07-29T16:21:17.760Z,23.2
2022-07-29T16:22:34.001Z,23.2
2022-07-29T16:23:50.255Z,23.2
2022-07-29T16:26:21.735Z,23.2
2022-07-29T16:27:37.989Z,23.2
2022-07-29T16:28:54.229Z,23.2
2022-07-29T16:30:10.464Z,23.2
2022-07-29T16:31:26.703Z,23.1
2022-07-29T16:32:42.944Z,23.1
2022-07-29T16:33:59.182Z,23.1
2022-07-29T16:35:15.425Z,23.1
2022-07-29T16:36:31.664Z,23.1
2022-07-29T16:37:47.893Z,23.1
2022-07-29T16:39:04.135Z,23
2022-07-29T16:40:20.385Z,23
2022-07-29T16:41:35.640Z,23.1
2022-07-29T16:42:51.872Z,23.1
2022-07-29T16:44:08.096Z,23.1
2022-07-29T16:45:24.344Z,23.1
2022-07-29T16:46:40.583Z,23.2
2022-07-29T16:47:56.819Z,23.2
2022-07-29T16:49:13.061Z,23.2
2022-07-29T16:50:29.312Z,23.2
2022-07-29T16:51:45.537Z,23.2
2022-07-29T16:53:01.779Z,23.2
2022-07-29T16:54:18.013Z,23.2
2022-07-29T16:55:34.257Z,23.2
2022-07-29T16:56:50.499Z,23.2
2022-07-29T16:58:05.752Z,23.2
2022-07-29T16:59:22.001Z,23.3
2022-07-29T17:00:38.244Z,23.3
2022-07-29T17:01:54.479Z,23.3
2022-07-29T17:03:10.710Z,23.3
2022-07-29T17:04:26.948Z,23.3
2022-07-29T17:05:43.184Z,23.3
2022-07-29T17:06:59.434Z,23.3
2022-07-29T17:08:15.664Z,23.4
2022-07-29T17:10:48.160Z,23.4
2022-07-29T17:12:04.390Z,23.5
2022-07-29T17:13:20.640Z,23.5
2022-07-29T17:14:35.890Z,23.5
2022-07-29T17:15:52.130Z,23.5
2022-07-29T17:17:08.357Z,23.5
2022-07-29T17:18:24.613Z,23.5
2022-07-29T17:19:40.857Z,23.6
2022-07-29T17:20:57.096Z,23.6
2022-07-29T17:22:13.322Z,23.7
2022-07-29T17:23:29.571Z,23.7
2022-07-29T17:24:45.811Z,23.7
2022-07-29T17:26:02.039Z,23.7
2022-07-29T17:27:18.282Z,23.8